createdAt,value
2023-03-06T00:00:19.480Z,7.25
2023-03-06T00:02:47.061Z,7.35
2023-03-06T00:05:15.570Z,6.90
2023-03-06T00:07:43.436Z,7.43
2023-03-06T00:10:25.271Z,7.35
2023-03-06T00:12:53.370Z,6.45
2023-03-06T00:15:20.763Z,7.18
2023-03-06T00:17:48.283Z,7.07
2023-03-06T00:20:15.934Z,6.68
2023-03-06T00:22:43.329Z,6.72
2023-03-06T00:25:13.973Z,6.32
2023-03-06T00:27:41.474Z,6.45
2023-03-06T00:30:09.499Z,5.72
2023-03-06T00:32:36.901Z,5.80
2023-03-06T00:35:04.570Z,6.40
2023-03-06T00:37:31.829Z,7.03
2023-03-06T00:39:59.264Z,7.10
2023-03-06T00:42:26.544Z,6.90
2023-03-06T00:44:53.934Z,7.30
2023-03-06T00:47:23.090Z,7.40
2023-03-06T00:49:50.825Z,7.85
2023-03-06T00:52:18.175Z,8.25
2023-03-06T00:54:45.721Z,6.30
2023-03-06T00:57:13.068Z,8.48
2023-03-06T00:59:40.467Z,7.65
2023-03-06T01:02:07.888Z,7.82
2023-03-06T01:04:35.696Z,9.55
2023-03-06T01:07:03.341Z,8.48
2023-03-06T01:09:31.583Z,9.93
2023-03-06T01:11:59.017Z,9.98
2023-03-06T01:14:27.087Z,10.77
2023-03-06T01:16:54.858Z,11.10
2023-03-06T01:19:22.264Z,12.63
2023-03-06T01:21:49.816Z,11.50
2023-03-06T01:24:17.168Z,10.93
2023-03-06T01:26:44.730Z,10.80
2023-03-06T01:29:12.166Z,10.95
2023-03-06T01:31:39.561Z,10.18
2023-03-06T01:34:06.936Z,11.32
2023-03-06T01:36:34.520Z,11.23
2023-03-06T01:39:04.070Z,11.07
2023-03-06T01:41:32.823Z,9.90
2023-03-06T01:44:00.527Z,9.73
2023-03-06T01:46:31.109Z,10.57
2023-03-06T01:49:00.688Z,10.60
2023-03-06T01:51:33.109Z,11.18
2023-03-06T01:54:02.045Z,10.25
2023-03-06T01:56:29.574Z,10.68
2023-03-06T01:58:58.455Z,10.35
2023-03-06T02:01:26.077Z,11.00
2023-03-06T02:03:53.693Z,10.60
2023-03-06T02:06:22.115Z,10.07
2023-03-06T02:08:50.815Z,9.93
2023-03-06T02:11:20.164Z,9.85
2023-03-06T02:13:48.973Z,10.60
2023-03-06T02:16:17.299Z,9.63
2023-03-06T02:18:46.917Z,9.85
2023-03-06T02:21:20.445Z,9.77
2023-03-06T02:23:50.920Z,9.95
2023-03-06T02:26:18.929Z,9.98
2023-03-06T02:28:46.419Z,10.32
2023-03-06T02:31:25.330Z,10.05
2023-03-06T02:34:09.951Z,9.98
2023-03-06T02:36:42.127Z,10.55
2023-03-06T02:39:09.555Z,9.63
2023-03-06T02:41:38.011Z,9.40
2023-03-06T02:44:05.936Z,9.77
2023-03-06T02:46:33.357Z,10.13
2023-03-06T02:49:00.673Z,10.75
2023-03-06T02:51:28.760Z,8.65
2023-03-06T02:53:56.195Z,9.10
2023-03-06T02:56:23.897Z,9.07
2023-03-06T02:58:52.331Z,10.20
2023-03-06T03:01:20.917Z,9.15
2023-03-06T03:03:48.642Z,8.40
2023-03-06T03:06:16.395Z,7.95
2023-03-06T03:08:44.964Z,8.48
2023-03-06T03:11:13.066Z,7.75
2023-03-06T03:13:43.803Z,7.72
2023-03-06T03:16:17.141Z,7.18
2023-03-06T03:18:45.143Z,8.43
2023-03-06T03:21:13.825Z,7.85
2023-03-06T03:23:41.641Z,7.97
2023-03-06T03:26:09.194Z,7.40
2023-03-06T03:28:39.270Z,8.03
2023-03-06T03:31:08.183Z,6.25
2023-03-06T03:33:35.746Z,8.05
2023-03-06T03:36:04.527Z,7.35
2023-03-06T03:38:33.786Z,7.63
2023-03-06T03:41:02.269Z,7.72
2023-03-06T03:43:30.687Z,6.28
2023-03-06T03:45:59.772Z,7.70
2023-03-06T03:48:29.012Z,7.57
2023-03-06T03:51:04.975Z,7.07
2023-03-06T03:53:33.703Z,7.23
2023-03-06T03:56:01.787Z,7.82
2023-03-06T03:58:29.924Z,8.50
2023-03-06T04:00:57.543Z,8.70
2023-03-06T04:03:24.972Z,9.00
2023-03-06T04:05:54.508Z,8.52
2023-03-06T04:08:24.227Z,9.52
2023-03-06T04:10:52.411Z,9.25
2023-03-06T04:13:21.942Z,9.65
2023-03-06T04:15:50.794Z,10.07
2023-03-06T04:18:20.864Z,9.07
2023-03-06T04:20:49.629Z,9.75
2023-03-06T04:23:19.216Z,9.52
2023-03-06T04:25:47.547Z,8.70
2023-03-06T04:28:15.660Z,9.32
2023-03-06T04:30:43.093Z,8.37
2023-03-06T04:33:10.906Z,8.55
2023-03-06T04:35:38.517Z,9.30
2023-03-06T04:38:11.510Z,7.55
2023-03-06T04:40:38.833Z,7.63
2023-03-06T04:43:06.582Z,6.55
2023-03-06T04:45:34.305Z,5.85
2023-03-06T04:48:03.211Z,4.65
2023-03-06T04:50:33.844Z,5.80
2023-03-06T04:53:02.201Z,5.60
2023-03-06T04:55:29.700Z,5.90
2023-03-06T04:57:58.982Z,5.45
2023-03-06T05:00:33.549Z,5.15
2023-03-06T05:03:01.930Z,5.63
2023-03-06T05:05:29.416Z,4.80
2023-03-06T05:07:56.742Z,5.93
2023-03-06T05:10:24.350Z,5.85
2023-03-06T05:12:51.719Z,5.10
2023-03-06T05:15:19.061Z,5.63
2023-03-06T05:17:47.682Z,4.90
2023-03-06T05:20:15.742Z,5.40
2023-03-06T05:22:43.203Z,5.50
2023-03-06T05:25:10.857Z,5.00
2023-03-06T05:27:38.550Z,4.47
2023-03-06T05:30:17.458Z,4.72
2023-03-06T05:32:45.484Z,4.03
2023-03-06T05:35:17.379Z,3.55
2023-03-06T05:37:44.731Z,3.70
2023-03-06T05:40:12.680Z,4.20
2023-03-06T05:42:40.381Z,3.58
2023-03-06T05:45:08.432Z,3.75
2023-03-06T05:47:35.830Z,4.50
2023-03-06T05:50:03.102Z,4.13
2023-03-06T05:52:30.500Z,3.97
2023-03-06T05:54:58.201Z,5.45
2023-03-06T05:57:26.499Z,4.22
2023-03-06T05:59:53.868Z,4.15
2023-03-06T06:02:21.447Z,4.53
2023-03-06T06:04:49.447Z,4.55
2023-03-06T06:07:17.508Z,4.63
2023-03-06T06:09:45.691Z,4.20
2023-03-06T06:12:13.579Z,3.63
2023-03-06T06:14:41.239Z,4.43
2023-03-06T06:17:08.875Z,4.00
2023-03-06T06:19:36.241Z,4.60
2023-03-06T06:22:03.998Z,4.28
2023-03-06T06:24:32.309Z,4.00
2023-03-06T06:27:01.474Z,4.10
2023-03-06T06:29:30.906Z,4.20
2023-03-06T06:31:58.737Z,3.67
2023-03-06T06:34:26.372Z,3.80
2023-03-06T06:36:54.738Z,4.03
2023-03-06T06:39:23.249Z,4.50
2023-03-06T06:42:06.698Z,3.10
2023-03-06T06:44:40.592Z,3.78
2023-03-06T06:47:25.370Z,3.88
2023-03-06T06:49:54.327Z,2.90
2023-03-06T06:52:21.962Z,3.35
2023-03-06T06:54:49.312Z,2.97
2023-03-06T06:57:16.957Z,3.63
2023-03-06T06:59:44.297Z,2.78
2023-03-06T07:02:12.690Z,2.95
2023-03-06T07:04:52.387Z,2.90
2023-03-06T07:07:29.087Z,2.30
2023-03-06T07:09:56.747Z,2.55
2023-03-06T07:12:24.046Z,2.88
2023-03-06T07:14:51.303Z,2.65
2023-03-06T07:17:18.583Z,2.30
2023-03-06T07:19:45.965Z,2.42
2023-03-06T07:22:13.642Z,2.50
2023-03-06T07:24:40.995Z,2.80
2023-03-06T07:27:08.327Z,2.53
2023-03-06T07:29:35.797Z,2.80
2023-03-06T07:32:03.291Z,2.65
2023-03-06T07:34:30.694Z,2.95
2023-03-06T07:36:58.087Z,2.75
2023-03-06T07:39:25.465Z,2.45
2023-03-06T07:41:53.499Z,2.72
2023-03-06T07:44:21.151Z,2.33
2023-03-06T07:46:48.897Z,2.70
2023-03-06T07:49:16.453Z,2.50
2023-03-06T07:51:44.420Z,2.63
2023-03-06T07:54:11.845Z,2.60
2023-03-06T07:56:39.246Z,2.95
2023-03-06T07:59:14.230Z,3.10
2023-03-06T08:01:42.246Z,2.83
2023-03-06T08:04:11.104Z,3.60
2023-03-06T08:06:42.400Z,2.88
2023-03-06T08:09:10.115Z,2.45
2023-03-06T08:11:37.761Z,2.28
2023-03-06T08:14:05.190Z,2.25
2023-03-06T08:16:32.889Z,2.40
2023-03-06T08:19:00.393Z,3.00
2023-03-06T08:21:31.752Z,2.72
2023-03-06T08:23:59.458Z,2.92
2023-03-06T08:26:28.140Z,2.83
2023-03-06T08:28:57.331Z,2.85
2023-03-06T08:31:26.543Z,2.70
2023-03-06T08:33:54.677Z,2.25
2023-03-06T08:36:22.520Z,2.80
2023-03-06T08:38:49.977Z,2.58
2023-03-06T08:41:17.575Z,3.45
2023-03-06T08:43:44.969Z,2.75
2023-03-06T08:46:13.650Z,2.30
2023-03-06T08:48:41.444Z,2.78
2023-03-06T08:51:09.833Z,2.80
2023-03-06T08:53:43.190Z,2.95
2023-03-06T08:56:26.855Z,2.83
2023-03-06T08:58:54.687Z,2.38
2023-03-06T09:01:23.304Z,1.90
2023-03-06T09:03:51.067Z,1.90
2023-03-06T09:06:18.626Z,2.72
2023-03-06T09:08:46.188Z,2.88
2023-03-06T09:11:15.055Z,2.80
2023-03-06T09:13:42.969Z,1.92
2023-03-06T09:16:11.428Z,2.35
2023-03-06T09:18:38.905Z,1.30
2023-03-06T09:21:08.031Z,1.30
2023-03-06T09:23:36.169Z,1.95
2023-03-06T09:26:04.215Z,2.60
2023-03-06T09:28:32.111Z,2.65
2023-03-06T09:31:02.106Z,2.30
2023-03-06T09:33:31.410Z,1.60
2023-03-06T09:35:58.834Z,2.38
2023-03-06T09:38:27.667Z,2.20
2023-03-06T09:40:58.391Z,2.08
2023-03-06T09:43:30.822Z,2.70
2023-03-06T09:46:01.164Z,1.83
2023-03-06T09:48:49.398Z,2.05
2023-03-06T09:51:18.084Z,1.83
2023-03-06T09:53:55.004Z,1.15
2023-03-06T09:56:24.038Z,1.10
2023-03-06T09:58:53.877Z,1.70
2023-03-06T10:01:33.216Z,1.10
2023-03-06T10:04:10.304Z,1.48
2023-03-06T10:06:46.452Z,1.10
2023-03-06T10:09:20.035Z,1.47
2023-03-06T10:11:47.410Z,1.08
2023-03-06T10:14:18.605Z,0.85
2023-03-06T10:16:46.232Z,1.23
2023-03-06T10:19:18.202Z,1.55
2023-03-06T10:21:48.710Z,1.07
2023-03-06T10:24:48.943Z,1.30
2023-03-06T10:28:01.691Z,1.60
2023-03-06T10:30:35.101Z,1.52
2023-03-06T10:33:10.620Z,1.70
2023-03-06T10:35:58.201Z,2.53
2023-03-06T10:38:25.923Z,1.95
2023-03-06T10:40:56.327Z,1.73
2023-03-06T10:43:24.196Z,1.30
2023-03-06T10:45:53.453Z,1.02
2023-03-06T10:48:22.650Z,1.63
2023-03-06T10:50:51.668Z,1.20
2023-03-06T10:53:29.309Z,1.38
2023-03-06T10:55:58.903Z,1.15
2023-03-06T10:58:26.532Z,1.10
2023-03-06T11:01:07.497Z,0.80
2023-03-06T11:03:36.411Z,0.90
2023-03-06T11:06:04.331Z,1.50
2023-03-06T11:08:32.388Z,1.70
2023-03-06T11:11:04.737Z,1.20
2023-03-06T11:13:34.056Z,1.20
2023-03-06T11:19:09.921Z,0.90
2023-03-06T11:21:40.651Z,1.83
2023-03-06T11:24:15.976Z,1.23
2023-03-06T11:26:55.882Z,1.73
2023-03-06T11:29:23.850Z,1.08
2023-03-06T11:32:05.475Z,1.20
2023-03-06T11:34:42.158Z,1.52
2023-03-06T11:37:29.276Z,1.73
2023-03-06T11:40:13.242Z,2.07
2023-03-06T11:43:00.394Z,2.03
2023-03-06T11:48:19.186Z,1.50
2023-03-06T11:50:50.360Z,1.30
2023-03-06T11:53:26.118Z,1.63
2023-03-06T11:56:14.682Z,2.15
2023-03-06T11:58:51.552Z,1.60
2023-03-06T12:01:25.508Z,2.38
2023-03-06T12:07:17.300Z,2.10
2023-03-06T12:09:55.454Z,2.88
2023-03-06T12:12:54.515Z,2.20
2023-03-06T12:15:41.539Z,2.65
2023-03-06T12:18:21.292Z,2.83
2023-03-06T12:20:54.830Z,2.57
2023-03-06T12:26:34.658Z,2.97
2023-03-06T12:29:31.896Z,3.20
2023-03-06T12:32:09.204Z,3.47
2023-03-06T12:34:43.037Z,4.10
2023-03-06T12:37:10.282Z,3.90
2023-03-06T12:39:46.714Z,4.22
2023-03-06T12:42:43.506Z,4.32
2023-03-06T12:45:27.554Z,5.05
2023-03-06T12:47:59.343Z,4.63
2023-03-06T12:50:28.448Z,5.38
2023-03-06T12:52:56.686Z,5.55
2023-03-06T12:55:25.955Z,5.43
2023-03-06T12:57:53.954Z,5.53
2023-03-06T13:00:36.322Z,5.13
2023-03-06T13:03:19.621Z,5.47
2023-03-06T13:06:14.319Z,4.82
2023-03-06T13:08:55.518Z,6.57
2023-03-06T13:11:31.902Z,7.47
2023-03-06T13:13:59.240Z,6.33
2023-03-06T13:16:33.712Z,6.55
2023-03-06T13:19:12.102Z,7.18
2023-03-06T13:21:42.422Z,7.72
2023-03-06T13:24:22.323Z,7.43
2023-03-06T13:26:51.178Z,7.00
2023-03-06T13:29:36.681Z,6.28
2023-03-06T13:32:04.260Z,6.45
2023-03-06T13:34:39.288Z,6.70
2023-03-06T13:37:25.040Z,6.78
2023-03-06T13:40:01.652Z,6.18
2023-03-06T13:42:34.252Z,6.78
2023-03-06T13:45:09.475Z,5.15
2023-03-06T13:48:05.797Z,5.60
2023-03-06T13:50:44.898Z,5.45
2023-03-06T13:53:47.528Z,4.93
2023-03-06T13:56:33.818Z,5.07
2023-03-06T13:59:04.208Z,4.85
2023-03-06T14:01:31.496Z,5.20
2023-03-06T14:04:04.906Z,5.40
2023-03-06T14:06:35.261Z,6.05
2023-03-06T14:09:06.889Z,5.22
2023-03-06T14:11:35.431Z,4.43
2023-03-06T14:14:04.826Z,4.38
2023-03-06T14:16:49.046Z,4.50
2023-03-06T14:19:17.978Z,4.43
2023-03-06T14:21:45.293Z,4.90
2023-03-06T14:24:20.656Z,5.85
2023-03-06T14:26:49.629Z,6.30
2023-03-06T14:29:21.172Z,5.85
2023-03-06T14:31:52.731Z,6.35
2023-03-06T14:34:21.702Z,5.45
2023-03-06T14:36:50.803Z,5.43
2023-03-06T14:39:23.405Z,6.32
2023-03-06T14:41:50.757Z,5.78
2023-03-06T14:44:22.641Z,6.40
2023-03-06T14:46:57.089Z,5.40
2023-03-06T14:49:25.374Z,4.40
2023-03-06T14:51:53.968Z,4.30
2023-03-06T14:54:23.398Z,4.22
2023-03-06T14:57:13.534Z,4.95
2023-03-06T14:59:54.408Z,5.43
2023-03-06T15:02:28.013Z,5.60
2023-03-06T15:04:58.953Z,5.43
2023-03-06T15:07:28.401Z,4.70
2023-03-06T15:09:55.970Z,5.60
2023-03-06T15:12:26.059Z,4.55
2023-03-06T15:15:04.012Z,4.68
2023-03-06T15:17:33.236Z,5.25
2023-03-06T15:20:00.869Z,6.20
2023-03-06T15:22:43.738Z,5.88
2023-03-06T15:25:17.311Z,5.22
2023-03-06T15:28:17.959Z,5.07
2023-03-06T15:30:45.273Z,5.28
2023-03-06T15:33:26.309Z,5.65
2023-03-06T15:36:04.453Z,5.55
2023-03-06T15:38:39.406Z,5.13
2023-03-06T15:41:07.104Z,5.82
2023-03-06T15:43:39.360Z,5.57
2023-03-06T15:46:07.681Z,5.65
2023-03-06T15:48:35.552Z,6.43
2023-03-06T15:51:03.314Z,7.95
2023-03-06T15:53:30.646Z,7.63
2023-03-06T15:55:58.845Z,6.55
2023-03-06T15:58:28.971Z,7.57
2023-03-06T16:00:56.270Z,8.18
2023-03-06T16:03:23.603Z,6.90
2023-03-06T16:05:50.953Z,6.55
2023-03-06T16:08:18.199Z,6.53
2023-03-06T16:10:49.858Z,7.45
2023-03-06T16:13:19.510Z,8.93
2023-03-06T16:15:50.767Z,8.35
2023-03-06T16:18:18.347Z,7.22
2023-03-06T16:20:46.079Z,10.90
2023-03-06T16:23:14.959Z,9.68
2023-03-06T16:25:43.339Z,11.10
2023-03-06T16:28:15.066Z,9.32
2023-03-06T16:30:43.212Z,11.80
2023-03-06T16:33:11.552Z,9.90
2023-03-06T16:35:39.187Z,13.57
2023-03-06T16:38:06.453Z,13.20
2023-03-06T16:40:41.076Z,12.35
2023-03-06T16:43:08.724Z,10.30
2023-03-06T16:45:36.861Z,11.93
2023-03-06T16:48:04.677Z,10.23
2023-03-06T16:50:38.297Z,9.50
2023-03-06T16:53:05.927Z,9.68
2023-03-06T16:55:33.506Z,10.52
2023-03-06T16:58:00.779Z,9.68
2023-03-06T17:00:31.136Z,8.60
2023-03-06T17:02:58.696Z,9.95
2023-03-06T17:05:26.327Z,7.82
2023-03-06T17:07:53.670Z,8.23
2023-03-06T17:10:22.726Z,8.43
2023-03-06T17:12:50.162Z,8.90
2023-03-06T17:15:17.542Z,9.57
2023-03-06T17:17:44.872Z,7.05
2023-03-06T17:20:12.730Z,8.85
2023-03-06T17:22:41.517Z,9.32
2023-03-06T17:25:09.043Z,10.40
2023-03-06T17:27:36.957Z,8.68
2023-03-06T17:30:04.726Z,10.55
2023-03-06T17:32:32.802Z,9.48
2023-03-06T17:35:00.169Z,9.55
2023-03-06T17:37:27.547Z,10.90
2023-03-06T17:39:54.787Z,8.65
2023-03-06T17:42:22.050Z,10.23
2023-03-06T17:44:49.340Z,11.25
2023-03-06T17:47:16.610Z,11.27
2023-03-06T17:49:44.079Z,11.57
2023-03-06T17:52:11.698Z,9.13
2023-03-06T17:54:38.974Z,11.60
2023-03-06T17:57:06.402Z,11.60
2023-03-06T17:59:34.448Z,12.52
2023-03-06T18:02:01.834Z,12.07
2023-03-06T18:04:29.269Z,11.10
2023-03-06T18:06:58.274Z,10.02
2023-03-06T18:09:25.659Z,11.82
2023-03-06T18:11:53.010Z,12.10
2023-03-06T18:14:20.294Z,12.40
2023-03-06T18:16:47.626Z,10.85
2023-03-06T18:19:15.754Z,11.43
2023-03-06T18:21:43.117Z,12.52
2023-03-06T18:24:12.386Z,11.63
2023-03-06T18:26:44.152Z,12.80
2023-03-06T18:29:11.447Z,11.45
2023-03-06T18:31:39.971Z,12.95
2023-03-06T18:34:09.441Z,11.00
2023-03-06T18:36:37.353Z,12.73
2023-03-06T18:39:06.431Z,12.73
2023-03-06T18:41:33.634Z,13.38
2023-03-06T18:44:01.650Z,11.48
2023-03-06T18:46:33.197Z,12.40
2023-03-06T18:49:00.617Z,11.90
2023-03-06T18:51:27.945Z,12.68
2023-03-06T18:53:58.682Z,15.75
2023-03-06T18:56:26.174Z,15.15
2023-03-06T18:58:53.877Z,14.93
2023-03-06T19:01:22.452Z,14.98
2023-03-06T19:03:49.921Z,15.32
2023-03-06T19:06:17.350Z,13.98
2023-03-06T19:08:44.803Z,13.80
2023-03-06T19:11:16.166Z,12.50
2023-03-06T19:13:43.859Z,16.05
2023-03-06T19:16:19.083Z,13.25
2023-03-06T19:18:46.450Z,15.00
2023-03-06T19:21:15.423Z,16.02
2023-03-06T19:23:42.848Z,15.18
2023-03-06T19:26:10.379Z,14.25
2023-03-06T19:28:38.660Z,15.98
2023-03-06T19:31:10.160Z,15.93
2023-03-06T19:33:38.272Z,16.00
2023-03-06T19:36:07.048Z,13.95
2023-03-06T19:38:34.475Z,16.17
2023-03-06T19:41:01.989Z,16.85
2023-03-06T19:43:30.077Z,13.95
2023-03-06T19:45:58.049Z,17.13
2023-03-06T19:48:25.331Z,15.23
2023-03-06T19:50:52.591Z,16.20
2023-03-06T19:53:19.796Z,14.85
2023-03-06T19:55:47.082Z,14.75
2023-03-06T19:58:14.411Z,15.80
2023-03-06T20:00:41.980Z,14.30
2023-03-06T20:03:09.287Z,13.15
2023-03-06T20:05:36.539Z,14.73
2023-03-06T20:08:03.897Z,15.32
2023-03-06T20:10:31.168Z,15.80
2023-03-06T20:12:58.430Z,16.50
2023-03-06T20:15:27.990Z,16.15
2023-03-06T20:17:56.719Z,16.83
2023-03-06T20:20:24.104Z,15.15
2023-03-06T20:22:51.365Z,15.95
2023-03-06T20:25:19.148Z,15.77
2023-03-06T20:27:46.419Z,16.83
2023-03-06T20:30:13.753Z,13.57
2023-03-06T20:32:40.946Z,13.93
2023-03-06T20:35:08.470Z,13.23
2023-03-06T20:37:35.694Z,11.90
2023-03-06T20:40:03.597Z,13.48
2023-03-06T20:42:30.911Z,14.23
2023-03-06T20:44:58.204Z,11.18
2023-03-06T20:47:25.526Z,12.52
2023-03-06T20:49:52.788Z,10.90
2023-03-06T20:52:20.046Z,12.48
2023-03-06T20:54:47.313Z,12.90
2023-03-06T20:57:14.661Z,13.05
2023-03-06T20:59:41.994Z,13.75
2023-03-06T21:02:10.373Z,14.60
2023-03-06T21:04:40.979Z,11.07
2023-03-06T21:07:08.400Z,11.60
2023-03-06T21:09:37.730Z,14.48
2023-03-06T21:12:05.397Z,11.52
2023-03-06T21:14:32.697Z,12.75
2023-03-06T21:17:01.290Z,13.75
2023-03-06T21:19:28.654Z,11.30
2023-03-06T21:21:55.960Z,12.20
2023-03-06T21:24:23.229Z,13.90
2023-03-06T21:26:51.322Z,10.45
2023-03-06T21:29:18.704Z,12.32
2023-03-06T21:31:46.046Z,9.68
2023-03-06T21:34:13.436Z,10.52
2023-03-06T21:36:40.760Z,9.30
2023-03-06T21:39:08.103Z,6.95
2023-03-06T21:41:35.430Z,6.07
2023-03-06T21:44:03.698Z,7.28
2023-03-06T21:46:31.361Z,6.88
2023-03-06T21:48:58.929Z,6.32
2023-03-06T21:51:26.771Z,6.15
2023-03-06T21:53:58.988Z,5.40
2023-03-06T21:56:28.392Z,5.93
2023-03-06T21:58:56.268Z,6.72
2023-03-06T22:01:25.340Z,5.60
2023-03-06T22:03:52.780Z,5.47
2023-03-06T22:06:21.947Z,5.43
2023-03-06T22:08:49.424Z,7.50
2023-03-06T22:11:17.986Z,6.50
2023-03-06T22:13:45.317Z,7.88
2023-03-06T22:16:12.860Z,4.88
2023-03-06T22:18:40.299Z,5.78
2023-03-06T22:21:08.425Z,6.40
2023-03-06T22:23:35.707Z,4.50
2023-03-06T22:26:06.743Z,5.55
2023-03-06T22:28:34.101Z,5.22
2023-03-06T22:31:08.536Z,4.93
2023-03-06T22:33:35.870Z,3.60
2023-03-06T22:36:06.151Z,4.65
2023-03-06T22:38:37.395Z,4.03
2023-03-06T22:41:05.170Z,3.00
2023-03-06T22:43:32.589Z,4.30
2023-03-06T22:46:03.865Z,3.45
2023-03-06T22:48:31.604Z,3.30
2023-03-06T22:51:05.871Z,3.63
2023-03-06T22:53:33.811Z,3.95
2023-03-06T22:56:01.546Z,5.05
2023-03-06T22:58:34.232Z,4.88
2023-03-06T23:01:08.790Z,4.68
2023-03-06T23:03:39.853Z,4.35
2023-03-06T23:06:08.353Z,4.00
2023-03-06T23:08:35.697Z,4.75
2023-03-06T23:11:03.050Z,5.30
2023-03-06T23:13:48.893Z,6.07
2023-03-06T23:16:35.087Z,6.28
2023-03-06T23:19:21.300Z,6.00
2023-03-06T23:22:07.223Z,5.72
2023-03-06T23:24:53.039Z,6.40
2023-03-06T23:27:20.371Z,6.75
2023-03-06T23:29:50.250Z,6.35
2023-03-06T23:32:18.451Z,6.22
2023-03-06T23:34:48.240Z,6.68
2023-03-06T23:37:15.876Z,6.25
2023-03-06T23:39:43.897Z,5.85
2023-03-06T23:42:11.114Z,6.07
2023-03-06T23:44:38.373Z,6.25
2023-03-06T23:47:05.728Z,5.82
2023-03-06T23:49:33.053Z,6.18
2023-03-06T23:52:00.380Z,5.63
2023-03-06T23:54:27.663Z,6.35
2023-03-06T23:56:54.887Z,6.30
2023-03-06T23:59:22.146Z,5.40
